Time;durP1;ratioP1;P1;durP2;ratioP2;P2;SDS_P1;SDS_P2;PMS_P1;PMS_P2;Temp;Humidity;BMP_temperature;BMP_pressure;BME280_temperature;BME280_humidity;BME280_pressure;Samples;Min_cycle;Max_cycle;Signal;HPM_P1;HPM_P2
2022/01/30 00:01:49;;;;;;;4.20;3.28;;;20.90;60.30;;;;;;5056822;28;20041;-72
2022/01/30 00:04:16;;;;;;;8.10;3.53;;;20.90;60.90;;;;;;5057000;28;20069;-72
2022/01/30 00:06:42;;;;;;;5.07;3.15;;;20.90;60.40;;;;;;5056811;28;20037;-73
2022/01/30 00:09:16;;;;;;;4.88;2.75;;;20.90;60.20;;;;;;5056485;28;20057;-72
2022/01/30 00:11:45;;;;;;;5.43;2.92;;;20.80;60.20;;;;;;5057017;28;20053;-72
2022/01/30 00:14:17;;;;;;;5.05;2.90;;;20.80;60.70;;;;;;5056924;28;20033;-72
2022/01/30 00:16:43;;;;;;;4.80;3.33;;;20.80;60.70;;;;;;5056680;28;20045;-72
2022/01/30 00:21:48;;;;;;;4.63;2.95;;;20.60;60.80;;;;;;5056642;28;20044;-72
2022/01/30 00:24:22;;;;;;;4.60;2.90;;;20.60;60.90;;;;;;5056662;28;20045;-72
2022/01/30 00:26:50;;;;;;;4.07;3.03;;;20.60;61.00;;;;;;5056542;28;20073;-72
2022/01/30 00:29:16;;;;;;;4.90;2.85;;;20.50;60.90;;;;;;5056283;28;20120;-73
2022/01/30 00:31:43;;;;;;;4.55;3.38;;;20.50;60.80;;;;;;5056307;28;20163;-73
2022/01/30 00:34:09;;;;;;;4.28;2.85;;;20.60;60.80;;;;;;5056299;28;20044;-72
2022/01/30 00:36:35;;;;;;;5.30;2.67;;;20.70;61.00;;;;;;5056079;28;20034;-72
2022/01/30 00:39:01;;;;;;;6.43;3.55;;;20.70;60.60;;;;;;5056179;28;20057;-73
2022/01/30 00:41:27;;;;;;;4.53;2.90;;;20.70;60.70;;;;;;5039373;28;20029;-74
2022/01/30 00:43:53;;;;;;;5.63;3.10;;;20.60;60.20;;;;;;5056257;28;20045;-74
2022/01/30 00:46:19;;;;;;;5.68;3.17;;;20.60;59.70;;;;;;5055672;28;20060;-73
2022/01/30 00:48:47;;;;;;;3.15;2.63;;;20.60;59.50;;;;;;5057649;28;20037;-75
2022/01/30 00:51:16;;;;;;;3.83;3.00;;;20.30;59.00;;;;;;5043312;28;20048;-73
2022/01/30 00:53:43;;;;;;;3.47;2.80;;;20.60;58.80;;;;;;5060561;28;20046;-73
2022/01/30 00:56:10;;;;;;;5.82;2.65;;;20.60;58.60;;;;;;5060484;28;20037;-72
2022/01/30 00:58:36;;;;;;;5.10;2.92;;;20.50;58.10;;;;;;5060129;28;20041;-73
2022/01/30 01:01:02;;;;;;;3.53;2.50;;;20.50;58.10;;;;;;5060428;28;20053;-74
2022/01/30 01:03:28;;;;;;;3.35;2.95;;;20.60;57.60;;;;;;5060234;28;20049;-73
2022/01/30 01:05:56;;;;;;;3.58;2.58;;;20.30;57.70;;;;;;5060073;28;20050;-74
2022/01/30 01:08:34;;;;;;;3.65;2.92;;;20.40;57.60;;;;;;5060214;28;20234;-73
2022/01/30 01:11:26;;;;;;;4.45;2.88;;;20.40;57.40;;;;;;5059498;28;20073;-73
2022/01/30 01:24:58;;;;;;;3.85;2.70;;;20.10;56.60;;;;;;5059484;28;20041;-74
2022/01/30 01:27:24;;;;;;;3.65;2.72;;;20.20;56.40;;;;;;5058798;28;20049;-73
2022/01/30 01:29:50;;;;;;;5.75;2.88;;;20.30;56.30;;;;;;5059869;28;20057;-73
2022/01/30 01:32:16;;;;;;;4.13;2.45;;;20.20;56.10;;;;;;5059806;28;20066;-75
2022/01/30 01:34:42;;;;;;;3.33;2.63;;;20.20;55.80;;;;;;5059662;28;20045;-73
2022/01/30 01:37:11;;;;;;;5.57;3.42;;;20.20;55.60;;;;;;5059670;28;20133;-73
2022/01/30 01:39:38;;;;;;;3.25;2.60;;;20.20;55.60;;;;;;5059333;28;20096;-73
2022/01/30 01:42:04;;;;;;;4.03;2.80;;;20.10;55.40;;;;;;5059642;28;20041;-73
2022/01/30 01:44:53;;;;;;;4.15;2.58;;;20.10;55.50;;;;;;5058970;28;20037;-73
2022/01/30 01:47:22;;;;;;;4.60;2.60;;;20.20;55.40;;;;;;5058649;28;20533;-73
2022/01/30 01:49:51;;;;;;;6.20;2.20;;;20.10;55.20;;;;;;5058793;28;20097;-73
2022/01/30 01:54:48;;;;;;;3.60;2.42;;;20.20;55.00;;;;;;5058692;28;20042;-73
2022/01/30 01:57:16;;;;;;;3.22;2.25;;;20.30;54.70;;;;;;5058202;28;20041;-73
2022/01/30 01:59:51;;;;;;;3.92;2.08;;;20.40;54.60;;;;;;5057571;28;20033;-72
2022/01/30 02:02:36;;;;;;;4.63;2.53;;;20.30;54.50;;;;;;5059183;28;20050;-73
2022/01/30 02:05:05;;;;;;;4.10;2.50;;;20.30;54.40;;;;;;5059291;28;20039;-72
2022/01/30 02:10:24;;;;;;;3.38;2.10;;;20.60;54.10;;;;;;5058909;28;20045;-73
2022/01/30 02:12:53;;;;;;;3.30;2.17;;;20.40;53.80;;;;;;5042143;28;20034;-72
2022/01/30 02:26:18;;;;;;;2.47;1.83;;;20.70;53.30;;;;;;5054530;28;20049;-72
2022/01/30 02:28:44;;;;;;;3.05;2.00;;;20.70;53.30;;;;;;5057873;28;20067;-73
2022/01/30 02:31:14;;;;;;;2.50;1.80;;;20.70;53.20;;;;;;5050473;28;20105;-74
2022/01/30 02:33:41;;;;;;;2.53;1.90;;;20.80;53.00;;;;;;5038284;28;20093;-73
2022/01/30 02:36:07;;;;;;;4.40;2.53;;;20.80;52.80;;;;;;5058384;28;20049;-74
2022/01/30 02:38:33;;;;;;;3.22;1.88;;;20.80;52.70;;;;;;5041310;28;20041;-73
2022/01/30 02:40:59;;;;;;;3.92;2.15;;;20.80;52.60;;;;;;5058519;28;20041;-73
2022/01/30 02:43:31;;;;;;;2.72;2.25;;;20.80;52.80;;;;;;5041145;28;20101;-73
2022/01/30 02:46:20;;;;;;;5.85;2.60;;;20.70;52.70;;;;;;5040831;28;20056;-72
2022/01/30 02:48:50;;;;;;;5.28;2.40;;;20.90;52.70;;;;;;5058202;28;20042;-73
2022/01/30 02:51:19;;;;;;;4.13;1.92;;;20.70;52.60;;;;;;5041031;28;20033;-72
2022/01/30 02:53:54;;;;;;;3.38;2.03;;;21.00;52.50;;;;;;5041167;28;20097;-72
2022/01/30 02:56:21;;;;;;;3.65;2.00;;;20.90;52.40;;;;;;5058378;28;20053;-74
2022/01/30 02:58:47;;;;;;;2.70;1.80;;;21.00;52.30;;;;;;5057265;28;20048;-72
2022/01/30 03:01:13;;;;;;;3.25;1.92;;;21.00;52.20;;;;;;5057362;28;20045;-74
2022/01/30 03:03:39;;;;;;;3.83;2.10;;;21.10;52.10;;;;;;5040820;28;20067;-73
2022/01/30 03:06:06;;;;;;;2.55;1.88;;;21.10;52.10;;;;;;5057897;28;20109;-73
2022/01/30 03:08:32;;;;;;;2.95;1.65;;;21.10;52.30;;;;;;5024401;28;20097;-73
2022/01/30 03:10:58;;;;;;;2.65;1.52;;;21.00;52.50;;;;;;5057436;28;20136;-72
2022/01/30 03:13:24;;;;;;;1.15;1.05;;;21.00;52.50;;;;;;5057334;28;20048;-73
2022/01/30 03:15:51;;;;;;;5.15;1.45;;;21.20;52.20;;;;;;5057761;28;20037;-73
2022/01/30 03:18:17;;;;;;;1.02;0.90;;;21.50;52.00;;;;;;5057082;28;20051;-73
2022/01/30 03:20:43;;;;;;;1.83;1.15;;;21.60;51.90;;;;;;5040528;28;20065;-73
2022/01/30 03:23:09;;;;;;;1.50;1.10;;;21.60;51.70;;;;;;5057212;28;20037;-73
2022/01/30 03:25:36;;;;;;;1.00;1.00;;;21.70;51.80;;;;;;5056587;28;20037;-73
2022/01/30 03:28:32;;;;;;;3.47;1.30;;;21.90;51.90;;;;;;5054206;28;20041;-73
2022/01/30 03:31:11;;;;;;;1.52;1.00;;;21.80;51.90;;;;;;5040230;28;20052;-72
2022/01/30 03:33:42;;;;;;;1.75;1.40;;;21.90;51.80;;;;;;5057516;28;20041;-73
2022/01/30 03:36:08;;;;;;;2.67;1.45;;;21.90;51.70;;;;;;5057543;28;20044;-72
2022/01/30 03:38:35;;;;;;;1.88;1.33;;;21.80;51.90;;;;;;5056582;28;20041;-73
2022/01/30 03:41:01;;;;;;;2.35;1.38;;;21.60;52.40;;;;;;5040143;28;20133;-73
2022/01/30 03:43:29;;;;;;;2.40;1.20;;;21.50;52.90;;;;;;5056430;28;20096;-73
2022/01/30 03:45:55;;;;;;;2.88;1.33;;;21.40;53.30;;;;;;5057080;28;20056;-72
2022/01/30 03:48:21;;;;;;;2.03;1.20;;;21.30;53.70;;;;;;5056603;28;20042;-74
2022/01/30 03:51:06;;;;;;;3.63;1.58;;;21.10;53.90;;;;;;5056434;28;20077;-72
2022/01/30 03:53:32;;;;;;;2.10;1.45;;;21.10;53.80;;;;;;5056224;28;20033;-73
2022/01/30 03:55:59;;;;;;;2.00;1.30;;;21.10;54.00;;;;;;5056976;28;20068;-73
2022/01/30 03:58:30;;;;;;;3.47;1.40;;;21.00;54.10;;;;;;5056164;28;20041;-73
2022/01/30 04:00:57;;;;;;;1.60;1.20;;;20.90;54.10;;;;;;5056162;28;20041;-73
2022/01/30 04:03:24;;;;;;;2.60;1.40;;;21.00;54.00;;;;;;5056402;28;20042;-73
2022/01/30 04:05:51;;;;;;;2.47;1.50;;;20.90;54.20;;;;;;5039545;28;20038;-73
2022/01/30 04:08:18;;;;;;;1.85;1.23;;;20.90;54.10;;;;;;5056307;28;20034;-73
2022/01/30 04:10:56;;;;;;;2.92;1.60;;;20.80;54.00;;;;;;5056031;28;20077;-72
2022/01/30 04:13:32;;;;;;;2.08;1.30;;;20.90;54.00;;;;;;5056083;28;20037;-73
2022/01/30 04:15:59;;;;;;;1.67;1.48;;;20.90;53.90;;;;;;5056628;28;20121;-73
2022/01/30 04:18:43;;;;;;;1.98;1.13;;;21.00;53.70;;;;;;5056657;28;20112;-73
2022/01/30 04:21:33;;;;;;;2.58;1.27;;;20.80;53.60;;;;;;5048392;28;20045;-73
2022/01/30 04:24:22;;;;;;;2.17;1.55;;;20.90;53.50;;;;;;5018941;28;20188;-73
2022/01/30 04:26:49;;;;;;;1.67;1.30;;;21.10;53.30;;;;;;5056162;28;20045;-73
2022/01/30 04:29:40;;;;;;;2.85;1.50;;;21.00;53.10;;;;;;5055733;28;20041;-72
2022/01/30 04:32:30;;;;;;;2.65;1.40;;;21.00;53.30;;;;;;5037257;28;20052;-73
2022/01/30 04:35:22;;;;;;;2.03;1.65;;;21.00;53.40;;;;;;5056492;28;20041;-73
2022/01/30 04:41:29;;;;;;;2.38;1.60;;;20.90;53.60;;;;;;5055719;28;20073;-73
2022/01/30 04:53:35;;;;;;;2.08;1.50;;;20.60;53.80;;;;;;5052293;28;20018;-73
2022/01/30 05:08:16;;;;;;;1.52;1.05;;;20.70;53.50;;;;;;5054871;28;20041;-73
2022/01/30 05:11:14;;;;;;;2.65;1.10;;;20.90;53.30;;;;;;5002553;28;20058;-73
2022/01/30 05:13:48;;;;;;;2.47;1.35;;;21.20;52.70;;;;;;5035583;28;20113;-74
2022/01/30 05:16:38;;;;;;;2.85;0.88;;;21.40;52.50;;;;;;5032581;28;20046;-73
2022/01/30 05:19:40;;;;;;;1.27;0.95;;;21.60;52.40;;;;;;4994878;28;20027;-74
2022/01/30 05:22:10;;;;;;;2.15;1.48;;;21.60;52.50;;;;;;5040581;28;20041;-74
2022/01/30 05:24:47;;;;;;;1.67;1.20;;;21.60;52.30;;;;;;5051385;28;20042;-71
2022/01/30 05:27:28;;;;;;;3.05;1.05;;;21.70;56.00;;;;;;5034884;28;20057;-72
2022/01/30 05:30:14;;;;;;;1.60;1.17;;;22.00;56.10;;;;;;5035512;28;20041;-74
2022/01/30 05:33:11;;;;;;;2.03;1.30;;;22.20;55.10;;;;;;5022443;28;20041;-73
2022/01/30 05:35:51;;;;;;;1.48;1.38;;;22.30;56.40;;;;;;5037843;28;20041;-74
2022/01/30 05:38:36;;;;;;;2.13;1.58;;;22.30;50.40;;;;;;5038288;28;20105;-74
2022/01/30 05:41:21;;;;;;;1.83;1.40;;;22.20;48.80;;;;;;5039109;28;20073;-73
2022/01/30 05:44:12;;;;;;;1.58;1.48;;;22.10;46.60;;;;;;5038608;28;20034;-73
2022/01/30 05:47:15;;;;;;;1.95;1.20;;;21.80;45.90;;;;;;5038196;28;20049;-74
2022/01/30 05:50:09;;;;;;;2.00;1.45;;;21.80;46.70;;;;;;5038471;28;20042;-73
2022/01/30 05:52:38;;;;;;;1.75;1.50;;;21.60;48.20;;;;;;5037919;28;20030;-73
2022/01/30 05:55:12;;;;;;;1.85;1.38;;;21.40;48.90;;;;;;5054906;28;20042;-72
2022/01/30 05:57:39;;;;;;;3.67;1.70;;;21.50;49.80;;;;;;5054813;28;20471;-74
2022/01/30 06:00:06;;;;;;;1.77;1.20;;;21.50;50.30;;;;;;5054526;28;20046;-73
2022/01/30 06:02:51;;;;;;;2.25;1.20;;;21.30;50.40;;;;;;5038843;28;20088;-74
2022/01/30 06:05:20;;;;;;;0.93;0.65;;;21.30;45.70;;;;;;5054620;28;20045;-74
2022/01/30 06:07:51;;;;;;;1.42;0.70;;;21.50;43.60;;;;;;5038569;28;20045;-74
2022/01/30 06:10:18;;;;;;;2.45;1.30;;;21.50;42.90;;;;;;5048220;28;20037;-72
2022/01/30 06:12:45;;;;;;;3.95;1.40;;;21.40;41.50;;;;;;5058597;28;20048;-74
2022/01/30 06:15:13;;;;;;;1.85;1.20;;;21.40;40.90;;;;;;5058134;28;20136;-74
2022/01/30 06:17:41;;;;;;;3.60;1.63;;;21.60;42.10;;;;;;5057641;28;20052;-74
2022/01/30 06:20:33;;;;;;;4.10;1.70;;;21.60;40.80;;;;;;5027864;28;20045;-73
2022/01/30 06:23:26;;;;;;;2.17;1.50;;;21.70;41.60;;;;;;5049582;28;20065;-74
2022/01/30 06:26:13;;;;;;;4.85;1.73;;;21.80;39.90;;;;;;5047720;28;20093;-74
2022/01/30 06:28:58;;;;;;;3.30;1.42;;;21.70;39.40;;;;;;5050846;28;20029;-74
2022/01/30 06:31:42;;;;;;;7.35;3.95;;;21.70;40.50;;;;;;5051557;28;20103;-76
2022/01/30 06:34:28;;;;;;;4.97;1.98;;;21.80;41.30;;;;;;5038084;28;20042;-75
2022/01/30 06:37:13;;;;;;;2.72;2.17;;;21.90;42.30;;;;;;5043829;28;20109;-75
2022/01/30 06:39:51;;;;;;;4.80;3.25;;;21.90;42.50;;;;;;5056443;28;20049;-74
2022/01/30 06:42:52;;;;;;;2.45;1.70;;;21.90;42.60;;;;;;4996379;28;20050;-75
2022/01/30 06:45:43;;;;;;;2.17;1.75;;;22.10;52.80;;;;;;5007074;28;20045;-76
2022/01/30 06:48:29;;;;;;;2.42;2.05;;;22.00;52.20;;;;;;5046998;28;20773;-77
2022/01/30 06:51:15;;;;;;;3.15;2.40;;;22.00;54.60;;;;;;5035521;28;20043;-75
2022/01/30 06:54:07;;;;;;;2.72;2.25;;;21.90;55.70;;;;;;5030033;28;20042;-76
2022/01/30 06:57:02;;;;;;;5.45;2.60;;;21.90;55.80;;;;;;5016809;28;20053;-77
2022/01/30 06:59:47;;;;;;;2.55;1.88;;;21.80;55.60;;;;;;5046618;28;20056;-74
2022/01/30 07:02:49;;;;;;;2.40;1.77;;;21.70;55.90;;;;;;4964832;29;20044;-76
2022/01/30 07:05:28;;;;;;;3.22;2.38;;;21.70;55.80;;;;;;5028805;28;20096;-75
2022/01/30 07:08:12;;;;;;;2.05;1.65;;;21.90;55.90;;;;;;5056222;28;20049;-75
2022/01/30 07:10:40;;;;;;;3.25;1.83;;;21.90;56.40;;;;;;5056039;28;20046;-75
2022/01/30 07:13:07;;;;;;;1.95;1.60;;;21.90;56.30;;;;;;5057078;28;20033;-74
2022/01/30 07:15:34;;;;;;;2.25;1.60;;;21.80;56.20;;;;;;5056687;28;20050;-75
2022/01/30 07:18:00;;;;;;;3.33;1.85;;;21.80;56.90;;;;;;5056257;28;20041;-75
2022/01/30 07:20:27;;;;;;;3.72;1.73;;;21.70;57.20;;;;;;5052927;28;20056;-74
2022/01/30 07:22:53;;;;;;;2.70;1.75;;;21.80;57.40;;;;;;5048271;28;20045;-74
2022/01/30 07:25:19;;;;;;;3.53;2.35;;;21.80;57.10;;;;;;5044882;28;20033;-76
2022/01/30 07:27:46;;;;;;;1.95;1.65;;;21.90;57.20;;;;;;5047148;28;20096;-75
2022/01/30 07:30:14;;;;;;;4.20;1.75;;;21.80;57.30;;;;;;5047116;28;20045;-74
2022/01/30 07:32:40;;;;;;;4.85;2.10;;;21.80;57.90;;;;;;5046415;28;20124;-74
2022/01/30 07:35:06;;;;;;;3.40;3.03;;;21.80;57.50;;;;;;5046835;28;20105;-74
2022/01/30 07:37:35;;;;;;;4.32;3.08;;;21.80;57.50;;;;;;5039442;28;20041;-74
2022/01/30 07:40:02;;;;;;;3.92;3.00;;;21.90;57.30;;;;;;5041706;28;20100;-76
2022/01/30 07:42:28;;;;;;;5.03;2.80;;;21.80;57.60;;;;;;5049548;28;20072;-77
2022/01/30 07:44:55;;;;;;;4.32;3.28;;;21.90;57.40;;;;;;5055648;28;20075;-75
2022/01/30 07:47:22;;;;;;;4.20;3.33;;;21.90;57.40;;;;;;5056062;28;20052;-75
2022/01/30 07:49:51;;;;;;;3.65;2.45;;;21.80;57.20;;;;;;5053617;28;20053;-73
2022/01/30 07:52:19;;;;;;;4.35;2.60;;;22.00;57.20;;;;;;5039472;28;20056;-74
2022/01/30 07:54:45;;;;;;;5.20;2.72;;;22.00;57.00;;;;;;5054129;28;20034;-74
2022/01/30 07:57:12;;;;;;;3.83;2.55;;;22.00;56.60;;;;;;5053911;28;20048;-74
2022/01/30 07:59:38;;;;;;;5.90;3.25;;;22.00;57.00;;;;;;5054110;28;20051;-73
2022/01/30 08:02:04;;;;;;;7.70;2.95;;;22.10;56.80;;;;;;5054985;28;20048;-74
2022/01/30 08:04:30;;;;;;;4.85;2.70;;;21.90;56.80;;;;;;5056086;28;20046;-73
2022/01/30 08:06:56;;;;;;;3.40;2.67;;;21.90;57.00;;;;;;5039866;28;20064;-74
2022/01/30 08:09:22;;;;;;;2.78;1.88;;;21.90;57.30;;;;;;5035815;28;20042;-74
2022/01/30 08:11:48;;;;;;;4.07;2.50;;;21.80;57.50;;;;;;5050928;28;20037;-74
2022/01/30 08:14:15;;;;;;;3.20;1.77;;;21.80;57.80;;;;;;5043976;28;20033;-72
2022/01/30 08:16:41;;;;;;;3.70;1.83;;;22.00;57.80;;;;;;5035937;28;20046;-75
2022/01/30 08:19:07;;;;;;;2.60;1.75;;;21.90;57.40;;;;;;5044588;28;20049;-75
2022/01/30 08:21:33;;;;;;;1.50;1.27;;;22.10;57.10;;;;;;5047212;28;20041;-74
2022/01/30 08:23:59;;;;;;;2.25;1.35;;;22.20;56.70;;;;;;5052493;28;20045;-75
2022/01/30 08:26:26;;;;;;;1.70;1.52;;;22.40;56.80;;;;;;5052597;28;20072;-73
2022/01/30 08:28:52;;;;;;;1.60;1.50;;;22.40;56.50;;;;;;5036087;28;20044;-74
2022/01/30 08:31:18;;;;;;;2.35;1.60;;;22.40;56.30;;;;;;5036028;28;20048;-74
2022/01/30 08:33:44;;;;;;;3.30;1.75;;;22.40;56.70;;;;;;5041160;28;20057;-74
2022/01/30 08:36:10;;;;;;;2.90;1.83;;;22.40;56.60;;;;;;5055459;28;20191;-74
2022/01/30 08:38:36;;;;;;;2.33;1.42;;;22.30;58.40;;;;;;5055540;28;20041;-75
2022/01/30 08:41:02;;;;;;;3.22;1.58;;;22.30;57.30;;;;;;5054208;28;20041;-74
2022/01/30 08:43:30;;;;;;;2.92;1.40;;;22.30;57.20;;;;;;5055655;28;20033;-75
2022/01/30 08:45:57;;;;;;;2.25;1.55;;;22.10;56.50;;;;;;5048141;28;20045;-76
2022/01/30 08:48:23;;;;;;;3.80;1.20;;;22.00;57.60;;;;;;5035879;28;20066;-75
2022/01/30 08:50:50;;;;;;;4.68;1.13;;;21.90;57.90;;;;;;5035835;28;20057;-76
2022/01/30 08:53:17;;;;;;;2.83;1.15;;;22.10;57.80;;;;;;5035729;28;20045;-75
2022/01/30 08:55:44;;;;;;;1.60;0.93;;;21.90;56.20;;;;;;5045306;28;20038;-74
2022/01/30 08:58:10;;;;;;;7.57;1.27;;;21.90;58.30;;;;;;5055089;28;20052;-76
2022/01/30 09:00:38;;;;;;;2.75;2.13;;;21.80;58.10;;;;;;5046375;28;20050;-75
2022/01/30 09:03:05;;;;;;;1.20;1.10;;;21.90;57.70;;;;;;5035160;28;20105;-75
2022/01/30 09:05:32;;;;;;;1.60;1.13;;;22.00;57.60;;;;;;5039293;28;20038;-75
2022/01/30 09:07:59;;;;;;;1.35;1.20;;;22.10;57.40;;;;;;5035406;28;20046;-75
2022/01/30 09:10:26;;;;;;;2.35;1.77;;;22.10;57.10;;;;;;5041351;28;20057;-75
2022/01/30 09:12:52;;;;;;;3.15;1.98;;;22.20;56.90;;;;;;5059343;28;20042;-74
2022/01/30 09:15:19;;;;;;;3.65;2.00;;;22.10;56.80;;;;;;5058805;28;20049;-74
2022/01/30 09:17:45;;;;;;;4.07;1.70;;;22.20;56.00;;;;;;5059363;28;20037;-83
2022/01/30 09:20:12;;;;;;;4.55;2.00;;;22.40;54.80;;;;;;5058060;28;20100;-81
2022/01/30 09:22:38;;;;;;;1.65;0.95;;;22.40;53.70;;;;;;5044593;28;20045;-82
2022/01/30 09:25:06;;;;;;;2.05;1.40;;;22.40;52.80;;;;;;5053118;28;20041;-79
2022/01/30 09:27:33;;;;;;;1.35;1.05;;;22.50;52.90;;;;;;5058634;28;20053;-78
2022/01/30 09:29:59;;;;;;;0.70;0.70;;;22.40;52.00;;;;;;5054453;28;20029;-73
2022/01/30 09:32:25;;;;;;;1.20;1.10;;;22.60;51.50;;;;;;5043032;28;20042;-73
2022/01/30 09:34:51;;;;;;;2.78;1.52;;;22.70;51.10;;;;;;5040594;28;20126;-71
2022/01/30 09:37:18;;;;;;;1.98;1.30;;;22.70;50.70;;;;;;5058727;28;20037;-78
2022/01/30 09:39:44;;;;;;;1.05;0.73;;;22.60;50.00;;;;;;5056637;28;20030;-79
2022/01/30 09:42:10;;;;;;;2.15;1.00;;;22.70;49.50;;;;;;5058551;28;20037;-73
2022/01/30 09:44:39;;;;;;;0.32;0.32;;;22.70;48.90;;;;;;5058288;28;20048;-80
2022/01/30 09:47:17;;;;;;;1.70;1.30;;;22.80;48.20;;;;;;5053945;28;20039;-77
2022/01/30 09:49:49;;;;;;;4.78;1.70;;;22.80;46.90;;;;;;5046882;28;20037;-76
2022/01/30 09:52:16;;;;;;;1.67;0.90;;;22.70;45.40;;;;;;5056757;28;20045;-76
2022/01/30 09:54:42;;;;;;;1.27;0.85;;;22.80;45.70;;;;;;5058390;28;20102;-73
2022/01/30 09:57:08;;;;;;;3.58;3.08;;;22.80;41.40;;;;;;5057958;28;20045;-73
2022/01/30 09:59:34;;;;;;;0.47;0.47;;;22.70;37.00;;;;;;5058220;28;20190;-75
2022/01/30 10:02:05;;;;;;;2.17;1.50;;;22.70;34.80;;;;;;5051181;28;20048;-75
2022/01/30 10:04:32;;;;;;;1.40;1.20;;;22.80;35.90;;;;;;5046446;28;20069;-76
2022/01/30 10:07:14;;;;;;;1.05;0.95;;;22.90;36.00;;;;;;5057057;28;20043;-76
2022/01/30 10:09:49;;;;;;;4.10;0.70;;;22.70;37.40;;;;;;5044476;28;20038;-75
2022/01/30 10:12:20;;;;;;;2.15;1.70;;;22.70;38.30;;;;;;5038042;28;20037;-75
2022/01/30 10:14:54;;;;;;;1.15;1.05;;;22.80;39.40;;;;;;5037917;28;20049;-75
2022/01/30 10:17:39;;;;;;;1.90;1.40;;;22.70;39.90;;;;;;5037959;28;20069;-74
2022/01/30 10:20:09;;;;;;;0.88;0.70;;;22.60;34.10;;;;;;5037804;28;20057;-75
2022/01/30 10:22:45;;;;;;;2.00;1.15;;;22.30;38.60;;;;;;5036901;28;20045;-75
2022/01/30 10:25:25;;;;;;;2.08;1.67;;;22.20;35.80;;;;;;5055046;28;20200;-75
2022/01/30 10:28:11;;;;;;;5.35;1.58;;;22.00;38.10;;;;;;5057460;28;20097;-74
2022/01/30 10:30:53;;;;;;;2.05;1.50;;;21.90;34.50;;;;;;5037734;28;20130;-75
2022/01/30 10:33:21;;;;;;;2.63;1.45;;;22.20;33.20;;;;;;5022157;28;20062;-74
2022/01/30 10:35:57;;;;;;;3.55;1.77;;;22.60;32.60;;;;;;5052529;28;20101;-74
2022/01/30 10:39:17;;;;;;;7.45;1.45;;;22.60;31.00;;;;;;5057139;28;20088;-74
2022/01/30 10:41:53;;;;;;;8.45;1.77;;;22.80;30.70;;;;;;5021191;28;20113;-74
2022/01/30 10:44:20;;;;;;;1.10;1.00;;;22.70;34.30;;;;;;5041927;28;20101;-75
2022/01/30 10:46:48;;;;;;;1.77;1.45;;;23.00;34.90;;;;;;5057001;28;20060;-76
2022/01/30 10:49:20;;;;;;;2.03;1.50;;;23.00;38.70;;;;;;5056649;28;20068;-75
2022/01/30 10:51:57;;;;;;;2.00;1.17;;;23.00;36.90;;;;;;5057217;28;20034;-76
2022/01/30 10:54:29;;;;;;;1.65;0.90;;;23.10;42.60;;;;;;5056543;28;20105;-75
2022/01/30 10:57:07;;;;;;;0.80;0.80;;;23.00;43.80;;;;;;5056910;28;20065;-76
2022/01/30 10:59:38;;;;;;;1.25;1.13;;;23.00;43.90;;;;;;5056955;28;20041;-77
2022/01/30 11:02:11;;;;;;;1.55;1.15;;;23.00;43.80;;;;;;5045976;28;20464;-76
2022/01/30 11:04:37;;;;;;;5.10;1.75;;;23.00;43.90;;;;;;5036313;28;20073;-75
2022/01/30 11:07:05;;;;;;;11.48;2.22;;;23.20;40.70;;;;;;5041906;28;20048;-76
2022/01/30 11:09:39;;;;;;;2.20;1.60;;;23.20;39.70;;;;;;5054923;28;20071;-76
2022/01/30 11:12:15;;;;;;;2.15;0.98;;;23.30;38.40;;;;;;5056998;28;20101;-75
2022/01/30 11:17:18;;;;;;;1.35;0.80;;;23.50;37.20;;;;;;5056828;28;20041;-77
2022/01/30 11:19:47;;;;;;;1.27;1.15;;;23.60;42.60;;;;;;5053719;28;20049;-75
2022/01/30 11:22:21;;;;;;;3.60;1.20;;;23.60;34.10;;;;;;5056413;28;20044;-75
2022/01/30 11:24:53;;;;;;;1.17;1.08;;;23.50;30.70;;;;;;5056774;28;20067;-74
2022/01/30 11:27:21;;;;;;;;;;;23.50;32.40;;;;;;5055461;28;20068;-74
2022/01/30 11:29:49;;;;;;;0.80;0.65;;;23.50;30.50;;;;;;5035700;28;19909;-74
2022/01/30 11:32:16;;;;;;;0.88;0.82;;;23.40;37.60;;;;;;5036535;28;20416;-74
2022/01/30 11:34:44;;;;;;;0.73;0.73;;;23.50;43.00;;;;;;5036569;28;20053;-73
2022/01/30 11:37:13;;;;;;;2.65;0.85;;;23.70;45.00;;;;;;5036211;28;20048;-74
2022/01/30 11:39:48;;;;;;;1.15;1.05;;;24.00;44.20;;;;;;5036470;28;20048;-74
2022/01/30 11:42:26;;;;;;;0.85;0.80;;;24.20;43.80;;;;;;5036593;28;20049;-74
2022/01/30 11:45:04;;;;;;;3.88;0.82;;;24.30;44.20;;;;;;5036543;28;20045;-73
2022/01/30 11:47:47;;;;;;;1.48;0.85;;;24.20;44.50;;;;;;5036494;28;20126;-74
2022/01/30 11:50:16;;;;;;;4.00;1.08;;;24.10;44.80;;;;;;5036567;28;20056;-74
2022/01/30 11:53:08;;;;;;;1.35;0.90;;;24.10;44.90;;;;;;5036612;28;20101;-73
2022/01/30 11:55:55;;;;;;;2.00;1.17;;;24.10;45.30;;;;;;5036416;28;20072;-74
2022/01/30 11:58:30;;;;;;;0.40;0.40;;;24.10;45.90;;;;;;5036478;28;20064;-74
2022/01/30 12:01:00;;;;;;;0.52;0.52;;;24.00;46.10;;;;;;5036488;28;20041;-74
2022/01/30 12:03:29;;;;;;;3.80;0.70;;;24.00;46.30;;;;;;5036399;28;20048;-72
2022/01/30 12:06:17;;;;;;;0.98;0.77;;;24.00;46.40;;;;;;5036707;28;20050;-73
2022/01/30 12:08:45;;;;;;;2.42;0.70;;;23.90;46.50;;;;;;5036529;28;20050;-73
2022/01/30 12:11:39;;;;;;;0.70;0.65;;;23.90;46.60;;;;;;5036140;28;20053;-73
2022/01/30 12:14:10;;;;;;;1.08;0.70;;;23.80;46.70;;;;;;5036242;28;20041;-74
2022/01/30 12:16:46;;;;;;;1.02;0.88;;;23.90;47.00;;;;;;5036306;28;20053;-73
2022/01/30 12:19:16;;;;;;;0.75;0.70;;;23.90;47.50;;;;;;5035848;28;20045;-74
2022/01/30 12:21:43;;;;;;;0.20;0.20;;;23.80;47.30;;;;;;5036290;28;20053;-74
2022/01/30 12:24:23;;;;;;;2.55;0.75;;;23.80;47.50;;;;;;5036080;28;20155;-72
2022/01/30 12:26:51;;;;;;;1.30;0.70;;;23.70;47.60;;;;;;5035673;28;20074;-74
2022/01/30 12:29:38;;;;;;;1.27;1.02;;;23.70;47.80;;;;;;5035816;28;20038;-74
2022/01/30 12:32:22;;;;;;;0.90;0.70;;;23.80;48.80;;;;;;5035395;28;20065;-75
2022/01/30 12:34:55;;;;;;;2.28;0.70;;;23.60;51.20;;;;;;5034780;28;20052;-74
2022/01/30 12:37:36;;;;;;;1.05;0.95;;;23.80;50.20;;;;;;5035647;28;20053;-74
2022/01/30 12:40:19;;;;;;;3.40;0.95;;;23.80;49.80;;;;;;5035447;28;20242;-74
2022/01/30 12:42:45;;;;;;;1.98;0.88;;;23.70;50.00;;;;;;5035684;28;20057;-72
2022/01/30 12:45:18;;;;;;;1.08;0.70;;;23.60;49.60;;;;;;5035014;28;20045;-74
2022/01/30 12:47:59;;;;;;;3.50;1.20;;;23.80;49.50;;;;;;5033310;28;20037;-74
2022/01/30 12:50:31;;;;;;;1.35;0.68;;;23.80;49.60;;;;;;5035039;28;20038;-74
2022/01/30 12:52:57;;;;;;;1.03;0.60;;;23.80;49.70;;;;;;5035904;28;20064;-74
2022/01/30 12:55:24;;;;;;;1.10;0.82;;;23.80;49.40;;;;;;5035792;28;20291;-74
2022/01/30 12:57:54;;;;;;;2.03;1.00;;;23.80;49.30;;;;;;5035951;28;20042;-74
2022/01/30 13:00:20;;;;;;;0.50;0.50;;;23.80;44.60;;;;;;5034888;28;20042;-74
2022/01/30 13:02:57;;;;;;;1.00;0.70;;;23.80;49.30;;;;;;5035477;28;20071;-74
2022/01/30 13:05:25;;;;;;;2.83;0.90;;;23.60;48.70;;;;;;5034803;28;20042;-74
2022/01/30 13:07:54;;;;;;;0.75;0.75;;;23.60;49.30;;;;;;5034896;28;20051;-74
2022/01/30 13:10:21;;;;;;;0.68;0.68;;;23.70;49.50;;;;;;5035152;28;20132;-74
2022/01/30 13:12:48;;;;;;;0.43;0.43;;;23.70;49.40;;;;;;5035356;28;20041;-74
2022/01/30 13:15:17;;;;;;;0.95;0.90;;;23.70;49.50;;;;;;5034817;28;20041;-74
2022/01/30 13:17:43;;;;;;;2.40;0.73;;;23.80;49.40;;;;;;5035800;28;20038;-74
2022/01/30 13:20:12;;;;;;;2.67;0.80;;;23.70;49.40;;;;;;5035594;28;20034;-74
2022/01/30 13:22:40;;;;;;;0.70;0.52;;;23.70;49.40;;;;;;5035170;28;20049;-74
2022/01/30 13:25:08;;;;;;;1.33;1.10;;;23.70;49.40;;;;;;5035416;28;20048;-74
2022/01/30 13:27:46;;;;;;;1.00;0.80;;;23.60;49.40;;;;;;5035161;28;20046;-74
2022/01/30 13:30:30;;;;;;;1.45;0.65;;;23.70;49.50;;;;;;5034738;28;20033;-74
2022/01/30 13:32:56;;;;;;;1.40;1.20;;;23.70;49.50;;;;;;5035029;28;20117;-74
2022/01/30 13:35:25;;;;;;;0.93;0.77;;;23.60;49.50;;;;;;5050837;28;20073;-74
2022/01/30 13:37:54;;;;;;;1.27;0.93;;;23.60;49.60;;;;;;5034055;28;20045;-74
2022/01/30 13:40:24;;;;;;;1.90;0.75;;;23.70;49.70;;;;;;5035441;28;20052;-73
2022/01/30 13:48:03;;;;;;;2.33;0.95;;;23.70;49.70;;;;;;5035545;28;20085;-74
2022/01/30 13:50:37;;;;;;;1.65;1.17;;;23.70;49.70;;;;;;5035289;28;20045;-74
2022/01/30 13:53:21;;;;;;;1.90;1.02;;;23.70;49.40;;;;;;5034492;28;20094;-74
2022/01/30 13:56:00;;;;;;;1.13;0.80;;;23.70;49.80;;;;;;5035108;28;20050;-74
2022/01/30 13:58:37;;;;;;;1.35;1.25;;;23.60;49.70;;;;;;5039118;28;20042;-74
2022/01/30 14:01:10;;;;;;;1.27;0.93;;;23.80;49.80;;;;;;5040820;28;20100;-74
2022/01/30 14:03:37;;;;;;;2.63;0.82;;;23.60;49.80;;;;;;5057283;28;20462;-74
2022/01/30 14:06:16;;;;;;;2.40;1.30;;;23.80;49.90;;;;;;5054653;28;20056;-74
2022/01/30 14:08:49;;;;;;;3.85;1.20;;;23.70;49.50;;;;;;5051963;28;20072;-71
2022/01/30 14:11:17;;;;;;;1.45;1.10;;;23.70;49.80;;;;;;5049694;28;20045;-71
2022/01/30 14:13:43;;;;;;;4.18;1.23;;;23.60;49.70;;;;;;5045874;28;20101;-71
2022/01/30 14:16:15;;;;;;;1.42;1.10;;;23.70;50.00;;;;;;5049359;28;20069;-72
2022/01/30 14:18:57;;;;;;;2.55;1.85;;;24.00;50.40;;;;;;5047634;28;20033;-72